Flugplatz Wiesbaden Army Airfield

Bericht für ETOU

vom 17.07. um 22:56 UTC

Wind 3 kt aus 360°

Sichtweite 10 km oder mehr

gering bewölkt in 22000 ft

Temperatur 15.5°C

Taupunkt 11.3°C

Luftfeuchtigkeit 76%

Luftdruck 1014 hPa

ETOU 172256Z AUTO 36003KT 9999 FEW220 16/11 A2993 RMK AO2 SLP134 T01550113 402670126

Prognose für ETOU

vom 17.07. um 00:00 UTC

Am 17.07. zwischen 00:00 UTC und 00:00 UTC

variable Windrichtung mit 6 kt

Sichtweite 10 km oder mehr

gering bewölkt in 3000 ft


Zwischen 00:00 und 00:00 UTC übergehend zu

Wind 9 kt aus 260°

Sichtweite 10 km oder mehr

aufgelockert bewölkt in 4000 ft


Zwischen 00:00 UTC und 00:00 UTC zeitweise

Wind 10 kt aus 260° in Böen 15 kt

TAF ETOU 171929Z 1719/1901 VRB06KT 9999 FEW030 QNH2987INS BECMG 1809/1810 26009KT 9999 SCT040 QNH2985INS TEMPO 1810/1815 26010G15KT TX26/1813Z TN12/1803Z
Impressum